sensor_id;sensor_type;location;lat;lon;timestamp;P1;durP1;ratioP1;P2;durP2;ratioP2
30818;SDS011;17546;42.674;23.284;2023-04-01T00:00:29;35.33;;;11.68;;
30818;SDS011;17546;42.674;23.284;2023-04-01T00:02:54;34.80;;;12.63;;
30818;SDS011;17546;42.674;23.284;2023-04-01T00:05:20;37.05;;;13.18;;
30818;SDS011;17546;42.674;23.284;2023-04-01T00:07:46;35.28;;;12.07;;
30818;SDS011;17546;42.674;23.284;2023-04-01T00:10:12;37.10;;;13.50;;
30818;SDS011;17546;42.674;23.284;2023-04-01T00:12:38;40.10;;;14.13;;
30818;SDS011;17546;42.674;23.284;2023-04-01T00:15:05;35.65;;;14.93;;
30818;SDS011;17546;42.674;23.284;2023-04-01T00:17:32;39.53;;;16.23;;
30818;SDS011;17546;42.674;23.284;2023-04-01T00:19:58;48.88;;;16.88;;
30818;SDS011;17546;42.674;23.284;2023-04-01T00:22:24;38.45;;;15.90;;
30818;SDS011;17546;42.674;23.284;2023-04-01T00:24:51;45.75;;;17.98;;
30818;SDS011;17546;42.674;23.284;2023-04-01T00:27:17;48.50;;;18.23;;
30818;SDS011;17546;42.674;23.284;2023-04-01T00:29:43;50.28;;;17.80;;
30818;SDS011;17546;42.674;23.284;2023-04-01T00:32:09;44.55;;;17.48;;
30818;SDS011;17546;42.674;23.284;2023-04-01T00:34:35;43.15;;;17.55;;
30818;SDS011;17546;42.674;23.284;2023-04-01T00:37:00;47.10;;;17.95;;
30818;SDS011;17546;42.674;23.284;2023-04-01T00:39:28;44.45;;;17.70;;
30818;SDS011;17546;42.674;23.284;2023-04-01T00:41:54;42.30;;;16.88;;
30818;SDS011;17546;42.674;23.284;2023-04-01T00:44:25;42.22;;;17.00;;
30818;SDS011;17546;42.674;23.284;2023-04-01T00:46:57;37.97;;;16.58;;
30818;SDS011;17546;42.674;23.284;2023-04-01T00:49:24;36.45;;;16.35;;
30818;SDS011;17546;42.674;23.284;2023-04-01T00:51:56;36.28;;;15.38;;
30818;SDS011;17546;42.674;23.284;2023-04-01T00:54:25;45.63;;;14.73;;
30818;SDS011;17546;42.674;23.284;2023-04-01T00:57:05;31.92;;;14.60;;
30818;SDS011;17546;42.674;23.284;2023-04-01T00:59:34;32.53;;;13.73;;
30818;SDS011;17546;42.674;23.284;2023-04-01T01:02:02;33.30;;;13.38;;
30818;SDS011;17546;42.674;23.284;2023-04-01T01:04:32;40.38;;;13.88;;
30818;SDS011;17546;42.674;23.284;2023-04-01T01:33:38;24.10;;;9.70;;
30818;SDS011;17546;42.674;23.284;2023-04-01T01:36:11;35.50;;;9.48;;
30818;SDS011;17546;42.674;23.284;2023-04-01T01:38:39;24.70;;;9.30;;
30818;SDS011;17546;42.674;23.284;2023-04-01T01:41:05;24.48;;;8.43;;
30818;SDS011;17546;42.674;23.284;2023-04-01T01:43:35;22.23;;;9.27;;
30818;SDS011;17546;42.674;23.284;2023-04-01T01:46:13;24.63;;;7.97;;
30818;SDS011;17546;42.674;23.284;2023-04-01T01:48:44;16.85;;;8.23;;
30818;SDS011;17546;42.674;23.284;2023-04-01T01:51:10;18.02;;;7.50;;
30818;SDS011;17546;42.674;23.284;2023-04-01T01:53:36;29.02;;;8.25;;
30818;SDS011;17546;42.674;23.284;2023-04-01T01:56:02;16.40;;;8.15;;
30818;SDS011;17546;42.674;23.284;2023-04-01T01:58:32;26.60;;;7.97;;
30818;SDS011;17546;42.674;23.284;2023-04-01T02:01:06;20.23;;;8.30;;
30818;SDS011;17546;42.674;23.284;2023-04-01T02:03:36;18.65;;;7.43;;
30818;SDS011;17546;42.674;23.284;2023-04-01T02:06:06;17.20;;;7.25;;
30818;SDS011;17546;42.674;23.284;2023-04-01T02:11:15;17.13;;;6.88;;
30818;SDS011;17546;42.674;23.284;2023-04-01T02:13:54;16.33;;;7.03;;
30818;SDS011;17546;42.674;23.284;2023-04-01T02:16:24;19.02;;;7.13;;
30818;SDS011;17546;42.674;23.284;2023-04-01T02:19:04;20.40;;;6.57;;
30818;SDS011;17546;42.674;23.284;2023-04-01T02:21:32;16.95;;;5.85;;
30818;SDS011;17546;42.674;23.284;2023-04-01T02:23:59;21.65;;;6.90;;
30818;SDS011;17546;42.674;23.284;2023-04-01T02:26:27;19.15;;;6.28;;
30818;SDS011;17546;42.674;23.284;2023-04-01T02:28:53;20.15;;;6.88;;
30818;SDS011;17546;42.674;23.284;2023-04-01T02:31:21;18.70;;;7.00;;
30818;SDS011;17546;42.674;23.284;2023-04-01T02:33:48;22.58;;;7.50;;
30818;SDS011;17546;42.674;23.284;2023-04-01T02:36:14;23.05;;;7.40;;
30818;SDS011;17546;42.674;23.284;2023-04-01T02:38:41;18.83;;;7.55;;
30818;SDS011;17546;42.674;23.284;2023-04-01T02:41:09;23.52;;;7.57;;
30818;SDS011;17546;42.674;23.284;2023-04-01T02:43:35;20.63;;;8.10;;
30818;SDS011;17546;42.674;23.284;2023-04-01T02:46:00;19.52;;;7.63;;
30818;SDS011;17546;42.674;23.284;2023-04-01T02:48:26;21.90;;;7.40;;
30818;SDS011;17546;42.674;23.284;2023-04-01T02:50:52;27.40;;;8.27;;
30818;SDS011;17546;42.674;23.284;2023-04-01T02:53:18;18.88;;;7.30;;
30818;SDS011;17546;42.674;23.284;2023-04-01T02:55:43;22.70;;;8.18;;
30818;SDS011;17546;42.674;23.284;2023-04-01T02:58:09;21.17;;;8.77;;
30818;SDS011;17546;42.674;23.284;2023-04-01T03:00:35;28.58;;;8.57;;
30818;SDS011;17546;42.674;23.284;2023-04-01T03:03:01;24.25;;;8.60;;
30818;SDS011;17546;42.674;23.284;2023-04-01T03:05:27;23.05;;;8.93;;
30818;SDS011;17546;42.674;23.284;2023-04-01T03:07:53;23.65;;;8.48;;
30818;SDS011;17546;42.674;23.284;2023-04-01T03:10:19;20.27;;;7.85;;
30818;SDS011;17546;42.674;23.284;2023-04-01T03:12:44;24.75;;;8.80;;
30818;SDS011;17546;42.674;23.284;2023-04-01T03:15:11;32.60;;;10.13;;
30818;SDS011;17546;42.674;23.284;2023-04-01T03:17:39;27.48;;;10.43;;
30818;SDS011;17546;42.674;23.284;2023-04-01T03:20:06;23.35;;;10.27;;
30818;SDS011;17546;42.674;23.284;2023-04-01T03:22:33;28.40;;;9.95;;
30818;SDS011;17546;42.674;23.284;2023-04-01T03:25:00;43.83;;;11.20;;
30818;SDS011;17546;42.674;23.284;2023-04-01T03:27:25;26.08;;;10.45;;
30818;SDS011;17546;42.674;23.284;2023-04-01T03:29:51;37.35;;;10.30;;
30818;SDS011;17546;42.674;23.284;2023-04-01T03:32:16;30.58;;;10.45;;
30818;SDS011;17546;42.674;23.284;2023-04-01T03:34:41;22.23;;;9.43;;
30818;SDS011;17546;42.674;23.284;2023-04-01T03:37:07;24.67;;;9.55;;
30818;SDS011;17546;42.674;23.284;2023-04-01T03:39:32;26.67;;;9.25;;
30818;SDS011;17546;42.674;23.284;2023-04-01T03:41:58;29.25;;;9.10;;
30818;SDS011;17546;42.674;23.284;2023-04-01T03:44:24;24.40;;;9.52;;
30818;SDS011;17546;42.674;23.284;2023-04-01T03:46:49;22.80;;;9.02;;
30818;SDS011;17546;42.674;23.284;2023-04-01T03:49:15;26.15;;;8.35;;
30818;SDS011;17546;42.674;23.284;2023-04-01T03:51:41;25.63;;;9.35;;
30818;SDS011;17546;42.674;23.284;2023-04-01T03:54:08;21.60;;;9.18;;
30818;SDS011;17546;42.674;23.284;2023-04-01T03:56:34;23.60;;;8.77;;
30818;SDS011;17546;42.674;23.284;2023-04-01T03:59:04;27.88;;;9.10;;
30818;SDS011;17546;42.674;23.284;2023-04-01T04:01:30;26.48;;;8.57;;
30818;SDS011;17546;42.674;23.284;2023-04-01T04:03:56;21.13;;;8.90;;
30818;SDS011;17546;42.674;23.284;2023-04-01T04:06:22;20.85;;;8.30;;
30818;SDS011;17546;42.674;23.284;2023-04-01T04:08:48;19.10;;;9.32;;
30818;SDS011;17546;42.674;23.284;2023-04-01T04:11:14;19.10;;;8.43;;
30818;SDS011;17546;42.674;23.284;2023-04-01T04:13:40;19.23;;;7.55;;
30818;SDS011;17546;42.674;23.284;2023-04-01T04:16:09;20.98;;;7.53;;
30818;SDS011;17546;42.674;23.284;2023-04-01T04:18:36;22.05;;;6.68;;
30818;SDS011;17546;42.674;23.284;2023-04-01T04:21:02;21.75;;;7.45;;
30818;SDS011;17546;42.674;23.284;2023-04-01T04:23:28;21.50;;;7.53;;
30818;SDS011;17546;42.674;23.284;2023-04-01T04:25:56;20.92;;;8.20;;
30818;SDS011;17546;42.674;23.284;2023-04-01T04:28:23;20.20;;;8.48;;
30818;SDS011;17546;42.674;23.284;2023-04-01T04:30:50;18.67;;;7.78;;
30818;SDS011;17546;42.674;23.284;2023-04-01T04:33:16;25.25;;;9.07;;
30818;SDS011;17546;42.674;23.284;2023-04-01T04:35:41;27.02;;;8.40;;
30818;SDS011;17546;42.674;23.284;2023-04-01T04:38:07;25.67;;;8.95;;
30818;SDS011;17546;42.674;23.284;2023-04-01T04:40:32;20.52;;;9.27;;
30818;SDS011;17546;42.674;23.284;2023-04-01T04:42:58;28.60;;;8.88;;
30818;SDS011;17546;42.674;23.284;2023-04-01T04:45:23;20.25;;;8.00;;
30818;SDS011;17546;42.674;23.284;2023-04-01T04:47:48;20.60;;;8.75;;
30818;SDS011;17546;42.674;23.284;2023-04-01T04:50:14;21.60;;;9.10;;
30818;SDS011;17546;42.674;23.284;2023-04-01T04:52:39;32.15;;;8.90;;
30818;SDS011;17546;42.674;23.284;2023-04-01T04:55:05;23.27;;;8.50;;
30818;SDS011;17546;42.674;23.284;2023-04-01T04:57:31;18.33;;;8.80;;
30818;SDS011;17546;42.674;23.284;2023-04-01T04:59:56;20.05;;;9.13;;
30818;SDS011;17546;42.674;23.284;2023-04-01T05:02:22;23.17;;;8.93;;
30818;SDS011;17546;42.674;23.284;2023-04-01T05:04:47;16.45;;;8.35;;
30818;SDS011;17546;42.674;23.284;2023-04-01T05:07:12;24.90;;;8.18;;
30818;SDS011;17546;42.674;23.284;2023-04-01T05:09:38;22.67;;;7.93;;
30818;SDS011;17546;42.674;23.284;2023-04-01T05:12:03;21.05;;;7.75;;
30818;SDS011;17546;42.674;23.284;2023-04-01T05:14:29;23.55;;;8.10;;
30818;SDS011;17546;42.674;23.284;2023-04-01T05:16:54;25.90;;;7.60;;
30818;SDS011;17546;42.674;23.284;2023-04-01T05:19:20;16.98;;;7.78;;
30818;SDS011;17546;42.674;23.284;2023-04-01T05:21:45;22.67;;;8.20;;
30818;SDS011;17546;42.674;23.284;2023-04-01T05:24:11;23.40;;;7.63;;
30818;SDS011;17546;42.674;23.284;2023-04-01T05:26:36;23.88;;;7.95;;
30818;SDS011;17546;42.674;23.284;2023-04-01T05:29:03;21.98;;;7.43;;
30818;SDS011;17546;42.674;23.284;2023-04-01T05:31:29;28.73;;;7.68;;
30818;SDS011;17546;42.674;23.284;2023-04-01T05:33:54;21.60;;;8.43;;
30818;SDS011;17546;42.674;23.284;2023-04-01T05:36:20;22.27;;;7.72;;
30818;SDS011;17546;42.674;23.284;2023-04-01T05:38:45;17.35;;;6.10;;
30818;SDS011;17546;42.674;23.284;2023-04-01T05:41:12;15.43;;;5.80;;
30818;SDS011;17546;42.674;23.284;2023-04-01T05:43:38;17.40;;;5.50;;
30818;SDS011;17546;42.674;23.284;2023-04-01T05:46:04;18.52;;;6.20;;
30818;SDS011;17546;42.674;23.284;2023-04-01T05:48:30;14.60;;;6.55;;
30818;SDS011;17546;42.674;23.284;2023-04-01T05:50:56;23.40;;;6.47;;
30818;SDS011;17546;42.674;23.284;2023-04-01T05:53:21;18.10;;;5.95;;
30818;SDS011;17546;42.674;23.284;2023-04-01T05:55:47;17.40;;;6.30;;
30818;SDS011;17546;42.674;23.284;2023-04-01T05:58:13;15.50;;;5.88;;
30818;SDS011;17546;42.674;23.284;2023-04-01T06:00:38;29.15;;;6.40;;
30818;SDS011;17546;42.674;23.284;2023-04-01T06:03:03;20.80;;;5.80;;
30818;SDS011;17546;42.674;23.284;2023-04-01T06:05:29;18.17;;;6.80;;
30818;SDS011;17546;42.674;23.284;2023-04-01T06:08:05;19.67;;;6.18;;
30818;SDS011;17546;42.674;23.284;2023-04-01T06:18:59;14.63;;;5.50;;
30818;SDS011;17546;42.674;23.284;2023-04-01T06:24:43;17.00;;;6.03;;
30818;SDS011;17546;42.674;23.284;2023-04-01T06:27:26;20.75;;;6.63;;
30818;SDS011;17546;42.674;23.284;2023-04-01T06:29:58;16.88;;;4.65;;
30818;SDS011;17546;42.674;23.284;2023-04-01T06:45:58;26.35;;;8.85;;
30818;SDS011;17546;42.674;23.284;2023-04-01T06:51:14;17.27;;;6.32;;
30818;SDS011;17546;42.674;23.284;2023-04-01T06:56:30;16.05;;;5.88;;
30818;SDS011;17546;42.674;23.284;2023-04-01T06:58:58;15.88;;;5.75;;
30818;SDS011;17546;42.674;23.284;2023-04-01T07:01:29;17.13;;;5.85;;
30818;SDS011;17546;42.674;23.284;2023-04-01T07:04:00;27.80;;;6.22;;
30818;SDS011;17546;42.674;23.284;2023-04-01T07:06:32;19.25;;;6.47;;
30818;SDS011;17546;42.674;23.284;2023-04-01T07:09:05;17.38;;;5.72;;
30818;SDS011;17546;42.674;23.284;2023-04-01T07:11:37;18.03;;;6.03;;
30818;SDS011;17546;42.674;23.284;2023-04-01T07:19:12;13.10;;;5.80;;
30818;SDS011;17546;42.674;23.284;2023-04-01T07:21:49;13.75;;;5.57;;
30818;SDS011;17546;42.674;23.284;2023-04-01T07:24:22;17.60;;;7.32;;
30818;SDS011;17546;42.674;23.284;2023-04-01T07:26:52;18.45;;;6.90;;
30818;SDS011;17546;42.674;23.284;2023-04-01T07:29:21;18.23;;;5.80;;
30818;SDS011;17546;42.674;23.284;2023-04-01T07:34:50;17.88;;;5.72;;
30818;SDS011;17546;42.674;23.284;2023-04-01T07:37:34;24.73;;;6.07;;
30818;SDS011;17546;42.674;23.284;2023-04-01T07:49:14;19.55;;;6.70;;
30818;SDS011;17546;42.674;23.284;2023-04-01T07:51:50;16.40;;;6.38;;
30818;SDS011;17546;42.674;23.284;2023-04-01T07:54:43;25.65;;;6.95;;
30818;SDS011;17546;42.674;23.284;2023-04-01T08:05:41;16.15;;;6.40;;
30818;SDS011;17546;42.674;23.284;2023-04-01T08:11:20;22.67;;;6.38;;
30818;SDS011;17546;42.674;23.284;2023-04-01T08:14:01;32.30;;;6.57;;
30818;SDS011;17546;42.674;23.284;2023-04-01T08:22:19;26.77;;;6.70;;
30818;SDS011;17546;42.674;23.284;2023-04-01T08:24:51;18.42;;;5.95;;
30818;SDS011;17546;42.674;23.284;2023-04-01T08:27:23;20.42;;;7.03;;
30818;SDS011;17546;42.674;23.284;2023-04-01T08:30:19;23.77;;;7.78;;
30818;SDS011;17546;42.674;23.284;2023-04-01T08:35:57;22.40;;;7.40;;
30818;SDS011;17546;42.674;23.284;2023-04-01T08:38:11;22.55;;;7.57;;
30818;SDS011;17546;42.674;23.284;2023-04-01T08:46:08;24.63;;;6.63;;
30818;SDS011;17546;42.674;23.284;2023-04-01T08:58:01;16.58;;;4.47;;
30818;SDS011;17546;42.674;23.284;2023-04-01T09:20:44;23.13;;;6.15;;
30818;SDS011;17546;42.674;23.284;2023-04-01T09:38:47;16.67;;;4.25;;
30818;SDS011;17546;42.674;23.284;2023-04-01T09:41:47;21.23;;;4.70;;
30818;SDS011;17546;42.674;23.284;2023-04-01T09:53:07;12.65;;;2.70;;
30818;SDS011;17546;42.674;23.284;2023-04-01T10:20:58;10.77;;;3.53;;
30818;SDS011;17546;42.674;23.284;2023-04-01T10:49:02;11.40;;;3.38;;
30818;SDS011;17546;42.674;23.284;2023-04-01T11:27:30;8.38;;;2.10;;
30818;SDS011;17546;42.674;23.284;2023-04-01T12:03:37;11.85;;;3.08;;
30818;SDS011;17546;42.674;23.284;2023-04-01T12:17:03;10.60;;;3.00;;
30818;SDS011;17546;42.674;23.284;2023-04-01T12:19:42;8.80;;;3.15;;
30818;SDS011;17546;42.674;23.284;2023-04-01T12:27:45;11.25;;;2.95;;
30818;SDS011;17546;42.674;23.284;2023-04-01T12:30:32;8.05;;;3.00;;
30818;SDS011;17546;42.674;23.284;2023-04-01T12:33:05;15.43;;;3.60;;
30818;SDS011;17546;42.674;23.284;2023-04-01T12:38:43;11.85;;;3.35;;
30818;SDS011;17546;42.674;23.284;2023-04-01T12:46:47;7.85;;;2.20;;
30818;SDS011;17546;42.674;23.284;2023-04-01T12:56:14;9.48;;;3.15;;
30818;SDS011;17546;42.674;23.284;2023-04-01T12:59:24;8.18;;;3.22;;
30818;SDS011;17546;42.674;23.284;2023-04-01T13:15:58;15.02;;;3.10;;
30818;SDS011;17546;42.674;23.284;2023-04-01T13:27:02;8.05;;;2.83;;
30818;SDS011;17546;42.674;23.284;2023-04-01T13:40:36;3.45;;;1.45;;
30818;SDS011;17546;42.674;23.284;2023-04-01T13:43:25;5.25;;;1.80;;
30818;SDS011;17546;42.674;23.284;2023-04-01T13:51:18;3.15;;;1.50;;
30818;SDS011;17546;42.674;23.284;2023-04-01T14:07:41;5.10;;;1.50;;
30818;SDS011;17546;42.674;23.284;2023-04-01T14:13:55;4.80;;;1.58;;
30818;SDS011;17546;42.674;23.284;2023-04-01T14:19:44;4.72;;;1.58;;
30818;SDS011;17546;42.674;23.284;2023-04-01T14:30:42;2.80;;;1.52;;
30818;SDS011;17546;42.674;23.284;2023-04-01T14:33:30;3.58;;;1.30;;
30818;SDS011;17546;42.674;23.284;2023-04-01T14:36:41;2.63;;;1.35;;
30818;SDS011;17546;42.674;23.284;2023-04-01T14:45:26;4.80;;;1.25;;
30818;SDS011;17546;42.674;23.284;2023-04-01T14:48:16;3.97;;;1.30;;
30818;SDS011;17546;42.674;23.284;2023-04-01T14:51:43;4.47;;;1.38;;
30818;SDS011;17546;42.674;23.284;2023-04-01T15:01:50;3.70;;;1.08;;
30818;SDS011;17546;42.674;23.284;2023-04-01T15:10:16;3.97;;;1.42;;
30818;SDS011;17546;42.674;23.284;2023-04-01T15:18:20;3.72;;;1.55;;
30818;SDS011;17546;42.674;23.284;2023-04-01T15:26:13;3.92;;;1.60;;
30818;SDS011;17546;42.674;23.284;2023-04-01T15:37:13;5.63;;;2.35;;
30818;SDS011;17546;42.674;23.284;2023-04-01T15:42:38;3.30;;;1.50;;
30818;SDS011;17546;42.674;23.284;2023-04-01T15:48:02;4.20;;;1.27;;
30818;SDS011;17546;42.674;23.284;2023-04-01T15:59:20;3.22;;;1.65;;
30818;SDS011;17546;42.674;23.284;2023-04-01T16:13:19;4.30;;;2.47;;
30818;SDS011;17546;42.674;23.284;2023-04-01T16:35:55;5.20;;;3.38;;
30818;SDS011;17546;42.674;23.284;2023-04-01T16:38:33;3.63;;;2.47;;
30818;SDS011;17546;42.674;23.284;2023-04-01T16:51:37;5.18;;;2.55;;
30818;SDS011;17546;42.674;23.284;2023-04-01T17:02:17;5.93;;;2.15;;
30818;SDS011;17546;42.674;23.284;2023-04-01T17:04:48;4.03;;;1.85;;
30818;SDS011;17546;42.674;23.284;2023-04-01T17:07:45;2.10;;;1.42;;
30818;SDS011;17546;42.674;23.284;2023-04-01T17:22:03;2.38;;;1.42;;
30818;SDS011;17546;42.674;23.284;2023-04-01T17:24:51;2.58;;;1.70;;
30818;SDS011;17546;42.674;23.284;2023-04-01T17:27:37;2.70;;;1.77;;
30818;SDS011;17546;42.674;23.284;2023-04-01T17:49:42;3.03;;;2.25;;
30818;SDS011;17546;42.674;23.284;2023-04-01T17:52:27;3.38;;;1.95;;
30818;SDS011;17546;42.674;23.284;2023-04-01T18:06:21;3.15;;;2.20;;
30818;SDS011;17546;42.674;23.284;2023-04-01T18:23:21;5.40;;;3.30;;
30818;SDS011;17546;42.674;23.284;2023-04-01T18:25:55;3.28;;;2.33;;
30818;SDS011;17546;42.674;23.284;2023-04-01T18:28:48;4.13;;;2.60;;
30818;SDS011;17546;42.674;23.284;2023-04-01T18:31:21;4.20;;;2.30;;
30818;SDS011;17546;42.674;23.284;2023-04-01T18:39:01;4.82;;;2.85;;
30818;SDS011;17546;42.674;23.284;2023-04-01T18:44:50;4.28;;;2.58;;
30818;SDS011;17546;42.674;23.284;2023-04-01T18:47:41;2.97;;;2.10;;
30818;SDS011;17546;42.674;23.284;2023-04-01T18:50:22;4.97;;;2.40;;
30818;SDS011;17546;42.674;23.284;2023-04-01T18:53:17;8.77;;;2.65;;
30818;SDS011;17546;42.674;23.284;2023-04-01T18:55:56;4.28;;;2.33;;
30818;SDS011;17546;42.674;23.284;2023-04-01T19:03:55;3.78;;;2.20;;
30818;SDS011;17546;42.674;23.284;2023-04-01T19:20:30;2.97;;;1.90;;
30818;SDS011;17546;42.674;23.284;2023-04-01T19:25:59;2.92;;;1.77;;
30818;SDS011;17546;42.674;23.284;2023-04-01T19:42:37;4.32;;;1.40;;
30818;SDS011;17546;42.674;23.284;2023-04-01T19:48:43;2.08;;;1.40;;
30818;SDS011;17546;42.674;23.284;2023-04-01T19:51:20;1.90;;;1.35;;
30818;SDS011;17546;42.674;23.284;2023-04-01T19:57:38;2.70;;;1.95;;
30818;SDS011;17546;42.674;23.284;2023-04-01T19:59:49;3.50;;;1.60;;
30818;SDS011;17546;42.674;23.284;2023-04-01T20:13:27;2.92;;;1.92;;
30818;SDS011;17546;42.674;23.284;2023-04-01T20:16:08;4.88;;;2.10;;
30818;SDS011;17546;42.674;23.284;2023-04-01T20:18:47;3.75;;;2.10;;
30818;SDS011;17546;42.674;23.284;2023-04-01T20:26:40;3.25;;;1.80;;
30818;SDS011;17546;42.674;23.284;2023-04-01T20:29:27;2.30;;;1.60;;
30818;SDS011;17546;42.674;23.284;2023-04-01T20:32:10;2.60;;;1.67;;
30818;SDS011;17546;42.674;23.284;2023-04-01T20:45:56;4.18;;;1.90;;
30818;SDS011;17546;42.674;23.284;2023-04-01T20:51:16;5.10;;;2.78;;
30818;SDS011;17546;42.674;23.284;2023-04-01T20:53:51;7.97;;;2.22;;
30818;SDS011;17546;42.674;23.284;2023-04-01T20:58:51;5.50;;;2.30;;
30818;SDS011;17546;42.674;23.284;2023-04-01T21:01:32;4.55;;;2.05;;
30818;SDS011;17546;42.674;23.284;2023-04-01T21:06:58;8.10;;;1.77;;
30818;SDS011;17546;42.674;23.284;2023-04-01T21:18:24;3.60;;;1.67;;
30818;SDS011;17546;42.674;23.284;2023-04-01T21:27:00;3.20;;;1.40;;
30818;SDS011;17546;42.674;23.284;2023-04-01T21:29:51;1.88;;;1.20;;
30818;SDS011;17546;42.674;23.284;2023-04-01T21:35:03;3.33;;;1.10;;
30818;SDS011;17546;42.674;23.284;2023-04-01T21:37:36;1.25;;;0.90;;
30818;SDS011;17546;42.674;23.284;2023-04-01T22:00:21;3.55;;;0.90;;
30818;SDS011;17546;42.674;23.284;2023-04-01T22:05:43;3.58;;;1.65;;
30818;SDS011;17546;42.674;23.284;2023-04-01T22:21:38;2.75;;;1.10;;
30818;SDS011;17546;42.674;23.284;2023-04-01T22:24:20;2.20;;;1.20;;
30818;SDS011;17546;42.674;23.284;2023-04-01T22:28:03;5.80;;;1.00;;
30818;SDS011;17546;42.674;23.284;2023-04-01T22:30:11;4.78;;;1.08;;
30818;SDS011;17546;42.674;23.284;2023-04-01T22:32:42;5.47;;;1.20;;
30818;SDS011;17546;42.674;23.284;2023-04-01T22:43:12;2.03;;;0.90;;
30818;SDS011;17546;42.674;23.284;2023-04-01T22:53:59;5.80;;;1.60;;
30818;SDS011;17546;42.674;23.284;2023-04-01T22:56:30;3.10;;;1.45;;
30818;SDS011;17546;42.674;23.284;2023-04-01T22:59:15;6.43;;;1.20;;
30818;SDS011;17546;42.674;23.284;2023-04-01T23:01:52;1.50;;;0.80;;
30818;SDS011;17546;42.674;23.284;2023-04-01T23:04:33;1.50;;;0.85;;
30818;SDS011;17546;42.674;23.284;2023-04-01T23:07:14;4.18;;;0.80;;
30818;SDS011;17546;42.674;23.284;2023-04-01T23:09:58;1.52;;;0.90;;
30818;SDS011;17546;42.674;23.284;2023-04-01T23:12:26;1.30;;;0.82;;
30818;SDS011;17546;42.674;23.284;2023-04-01T23:14:58;3.40;;;0.80;;
30818;SDS011;17546;42.674;23.284;2023-04-01T23:35:49;0.73;;;0.63;;
30818;SDS011;17546;42.674;23.284;2023-04-01T23:38:34;1.30;;;0.63;;
30818;SDS011;17546;42.674;23.284;2023-04-01T23:41:03;5.13;;;0.95;;
30818;SDS011;17546;42.674;23.284;2023-04-01T23:43:33;1.88;;;0.88;;
30818;SDS011;17546;42.674;23.284;2023-04-01T23:46:02;1.55;;;0.70;;
30818;SDS011;17546;42.674;23.284;2023-04-01T23:48:35;3.65;;;0.88;;
30818;SDS011;17546;42.674;23.284;2023-04-01T23:51:18;1.23;;;0.80;;
30818;SDS011;17546;42.674;23.284;2023-04-01T23:53:47;0.82;;;0.60;;
30818;SDS011;17546;42.674;23.284;2023-04-01T23:56:21;0.73;;;0.70;;
30818;SDS011;17546;42.674;23.284;2023-04-01T23:58:50;1.25;;;0.82;;
